createdAt,value
2019-05-11T00:04:00.145Z,97332.46
2019-05-11T00:08:06.011Z,97345.41
2019-05-11T00:12:10.912Z,97357.32
2019-05-11T00:16:18.941Z,97350.06
2019-05-11T00:20:22.393Z,97368.46
2019-05-11T00:24:29.601Z,97356.70
2019-05-11T00:28:33.882Z,97341.44
2019-05-11T00:32:38.787Z,97331.31
2019-05-11T00:36:43.675Z,97343.59
2019-05-11T00:40:49.543Z,97348.73
2019-05-11T00:44:54.436Z,97355.30
2019-05-11T00:48:59.328Z,97365.92
2019-05-11T00:53:04.243Z,97363.77
2019-05-11T00:57:09.129Z,97360.96
2019-05-11T01:01:14.024Z,97343.31
2019-05-11T01:05:18.912Z,97343.06
2019-05-11T01:09:23.800Z,97342.78
2019-05-11T01:13:28.704Z,97334.38
2019-05-11T01:17:33.596Z,97335.66
2019-05-11T01:21:38.487Z,97329.24
2019-05-11T01:25:43.381Z,97322.55
2019-05-11T01:29:48.280Z,97329.34
2019-05-11T01:33:53.172Z,97323.59
2019-05-11T01:37:58.071Z,97321.36
2019-05-11T01:42:02.950Z,97307.99
2019-05-11T01:46:07.844Z,97287.70
2019-05-11T01:50:12.886Z,97289.02
2019-05-11T01:54:17.777Z,97281.68
2019-05-11T01:58:22.675Z,97291.14
2019-05-11T02:02:27.580Z,97286.08
2019-05-11T02:06:32.462Z,97272.51
2019-05-11T02:10:37.353Z,97269.58
2019-05-11T02:14:42.250Z,97261.95
2019-05-11T02:18:47.146Z,97263.34
2019-05-11T02:22:52.047Z,97262.53
2019-05-11T02:26:56.935Z,97246.61
2019-05-11T02:31:01.834Z,97233.87
2019-05-11T02:35:07.771Z,97230.98
2019-05-11T02:39:12.669Z,97227.73
2019-05-11T02:43:17.554Z,97222.73
2019-05-11T02:47:22.444Z,97225.41
2019-05-11T02:51:29.941Z,97211.94
2019-05-11T02:55:36.275Z,97220.11
2019-05-11T02:59:41.159Z,97216.95
2019-05-11T03:03:46.043Z,97198.02
2019-05-11T03:07:50.928Z,97196.20
2019-05-11T03:11:56.556Z,97196.36
2019-05-11T03:16:01.584Z,97197.44
2019-05-11T03:20:07.304Z,97199.72
2019-05-11T03:24:12.187Z,97187.39
2019-05-11T03:28:17.070Z,97185.86
2019-05-11T03:32:21.976Z,97184.09
2019-05-11T03:36:26.846Z,97183.39
2019-05-11T03:40:31.732Z,97172.47
2019-05-11T03:44:36.627Z,97164.30
2019-05-11T03:48:41.513Z,97150.31
2019-05-11T03:52:46.400Z,97138.34
2019-05-11T03:56:51.299Z,97127.33
2019-05-11T04:00:56.198Z,97122.48
2019-05-11T04:05:01.097Z,97128.10
2019-05-11T04:09:07.164Z,97125.79
2019-05-11T04:13:12.034Z,97129.09
2019-05-11T04:17:16.999Z,97123.86
2019-05-11T04:21:21.885Z,97122.04
2019-05-11T04:25:26.785Z,97133.58
2019-05-11T04:29:31.675Z,97124.49
2019-05-11T04:33:36.574Z,97119.82
2019-05-11T04:37:41.491Z,97118.42
2019-05-11T04:41:46.505Z,97134.81
2019-05-11T04:45:51.870Z,97120.73
2019-05-11T04:49:56.754Z,97114.89
2019-05-11T04:54:01.651Z,97114.59
2019-05-11T04:58:07.524Z,97094.22
2019-05-11T05:02:12.417Z,97098.14
2019-05-11T05:06:24.826Z,97101.14
2019-05-11T05:10:23.909Z,97116.81
2019-05-11T05:14:28.805Z,97106.89
2019-05-11T05:18:33.712Z,97098.92
2019-05-11T05:22:38.603Z,97080.08
2019-05-11T05:26:43.499Z,97083.48
2019-05-11T05:30:48.388Z,97083.71
2019-05-11T05:34:53.280Z,97091.31
2019-05-11T05:38:58.177Z,97093.08
2019-05-11T05:43:03.083Z,97109.15
2019-05-11T05:47:07.969Z,97112.77
2019-05-11T05:51:12.855Z,97108.39
2019-05-11T05:55:17.745Z,97101.46
2019-05-11T05:59:22.705Z,97094.77
2019-05-11T06:03:27.548Z,97090.55
2019-05-11T06:07:32.450Z,97087.62
2019-05-11T06:11:37.345Z,97095.33
2019-05-11T06:15:42.239Z,97079.56
2019-05-11T06:19:47.176Z,97058.13
2019-05-11T06:23:52.084Z,97044.35
2019-05-11T06:27:57.047Z,97038.89
2019-05-11T06:32:01.939Z,97055.11
2019-05-11T06:36:06.841Z,97061.49
2019-05-11T06:40:12.381Z,97066.59
2019-05-11T06:44:17.275Z,97072.05
2019-05-11T06:48:22.186Z,97083.18
2019-05-11T06:52:27.239Z,97077.10
2019-05-11T06:56:32.133Z,97076.09
2019-05-11T07:00:37.029Z,97071.25
2019-05-11T07:04:41.931Z,97072.50
2019-05-11T07:08:46.825Z,97076.94
2019-05-11T07:12:51.720Z,97083.18
2019-05-11T07:16:56.625Z,97078.57
2019-05-11T07:21:01.515Z,97074.31
2019-05-11T07:25:07.457Z,97081.33
2019-05-11T07:29:13.427Z,97074.06
2019-05-11T07:33:18.427Z,97069.52
2019-05-11T07:37:24.410Z,97082.20
2019-05-11T07:41:29.477Z,97081.44
2019-05-11T07:45:34.451Z,97078.24
2019-05-11T07:49:39.348Z,97084.45
2019-05-11T07:53:44.246Z,97091.08
2019-05-11T07:57:49.153Z,97092.73
2019-05-11T08:01:54.063Z,97090.19
2019-05-11T08:06:02.493Z,97097.97
2019-05-11T08:10:08.250Z,97102.48
2019-05-11T08:14:13.360Z,97099.27
2019-05-11T08:18:18.883Z,97092.83
2019-05-11T08:22:23.920Z,97090.30
2019-05-11T08:26:28.884Z,97088.53
2019-05-11T08:30:33.803Z,97090.84
2019-05-11T08:34:39.758Z,97094.41
2019-05-11T08:38:44.780Z,97080.16
2019-05-11T08:42:49.681Z,97100.68
2019-05-11T08:46:54.573Z,97097.71
2019-05-11T08:51:00.249Z,97106.02
2019-05-11T08:55:08.388Z,97103.92
2019-05-11T08:59:12.777Z,97106.93
2019-05-11T09:03:17.953Z,97106.99
2019-05-11T09:07:22.948Z,97102.09
2019-05-11T09:11:28.474Z,97117.38
2019-05-11T09:15:37.348Z,97114.61
2019-05-11T09:19:40.022Z,97117.55
2019-05-11T09:23:44.926Z,97124.67
2019-05-11T09:27:49.823Z,97143.68
2019-05-11T09:31:54.730Z,97146.36
2019-05-11T09:35:59.613Z,97165.73
2019-05-11T09:40:07.779Z,97175.80
2019-05-11T09:44:12.232Z,97176.59
2019-05-11T09:48:17.996Z,97182.66
2019-05-11T09:52:23.114Z,97185.83
2019-05-11T09:56:28.793Z,97193.23
2019-05-11T10:00:34.059Z,97197.27
2019-05-11T10:04:38.963Z,97198.67
2019-05-11T10:08:43.863Z,97199.75
2019-05-11T10:12:52.325Z,97217.13
2019-05-11T10:16:55.373Z,97222.97
2019-05-11T10:21:00.274Z,97232.95
2019-05-11T10:25:08.918Z,97232.20
2019-05-11T10:29:13.800Z,97244.86
2019-05-11T10:33:18.989Z,97251.44
2019-05-11T10:37:23.976Z,97263.89
2019-05-11T10:41:28.859Z,97262.73
2019-05-11T10:45:33.829Z,97284.97
2019-05-11T10:49:38.722Z,97286.63
2019-05-11T10:53:43.622Z,97283.34
2019-05-11T10:57:48.875Z,97289.05
2019-05-11T11:01:53.781Z,97295.73
2019-05-11T11:05:58.677Z,97291.29
2019-05-11T11:10:03.720Z,97303.66
2019-05-11T11:14:08.835Z,97294.92
2019-05-11T11:18:13.803Z,97303.75
2019-05-11T11:22:35.982Z,97309.19
2019-05-11T11:26:25.277Z,97314.95
2019-05-11T11:30:30.175Z,97317.11
2019-05-11T11:34:35.078Z,97330.22
2019-05-11T11:38:39.974Z,97333.13
2019-05-11T11:42:44.865Z,97338.71
2019-05-11T11:46:54.939Z,97343.52
2019-05-11T11:50:58.371Z,97354.18
2019-05-11T11:55:04.104Z,97358.98
2019-05-11T11:59:09.000Z,97377.92
2019-05-11T12:03:13.906Z,97382.77
2019-05-11T12:07:18.795Z,97392.94
2019-05-11T12:11:23.699Z,97389.84
2019-05-11T12:15:28.604Z,97404.69
2019-05-11T12:19:33.527Z,97418.79
2019-05-11T12:23:38.438Z,97427.26
2019-05-11T12:27:43.383Z,97434.75
2019-05-11T12:31:49.367Z,97433.80
2019-05-11T12:35:54.261Z,97444.62
2019-05-11T12:39:59.158Z,97461.55
2019-05-11T12:44:04.057Z,97465.20
2019-05-11T12:48:09.139Z,97467.97
2019-05-11T12:52:14.028Z,97473.19
2019-05-11T12:56:19.207Z,97476.09
2019-05-11T13:00:30.625Z,97490.80
2019-05-11T13:04:33.357Z,97496.59
2019-05-11T13:08:38.897Z,97502.05
2019-05-11T13:12:43.897Z,97511.88
2019-05-11T13:16:48.969Z,97514.67
2019-05-11T13:20:53.871Z,97525.00
2019-05-11T13:24:58.956Z,97540.99
2019-05-11T13:29:04.896Z,97548.63
2019-05-11T13:33:09.819Z,97551.91
2019-05-11T13:37:14.777Z,97577.10
2019-05-11T13:41:19.681Z,97586.70
2019-05-11T13:45:24.579Z,97593.67
2019-05-11T13:49:32.378Z,97605.53
2019-05-11T13:53:37.680Z,97597.98
2019-05-11T13:57:42.807Z,97607.86
2019-05-11T14:01:48.006Z,97613.89
2019-05-11T14:05:52.982Z,97611.95
2019-05-11T14:09:58.815Z,97622.52
2019-05-11T14:14:04.012Z,97621.50
2019-05-11T14:18:11.869Z,97630.06
2019-05-11T14:22:17.875Z,97640.59
2019-05-11T14:26:22.934Z,97648.27
2019-05-11T14:30:28.211Z,97661.20
2019-05-11T14:34:33.193Z,97666.19
2019-05-11T14:38:38.286Z,97664.95
2019-05-11T14:42:43.264Z,97676.64
2019-05-11T14:46:48.157Z,97687.35
2019-05-11T14:50:53.046Z,97690.67
2019-05-11T14:54:58.581Z,97693.00
2019-05-11T14:59:03.515Z,97691.13
2019-05-11T15:03:08.411Z,97698.77
2019-05-11T15:07:13.307Z,97715.52
2019-05-11T15:11:19.112Z,97729.98
2019-05-11T15:15:24.267Z,97744.13
2019-05-11T15:19:29.169Z,97752.63
2019-05-11T15:23:34.071Z,97761.56
2019-05-11T15:27:38.970Z,97758.34
2019-05-11T15:31:43.854Z,97782.42
2019-05-11T15:35:48.757Z,97792.84
2019-05-11T15:39:55.300Z,97801.52
2019-05-11T15:44:00.197Z,97814.08
2019-05-11T15:48:05.248Z,97824.16
2019-05-11T15:52:10.134Z,97833.18
2019-05-11T15:56:15.038Z,97844.77
2019-05-11T16:00:20.371Z,97848.09
2019-05-11T16:04:25.276Z,97862.06
2019-05-11T16:08:31.141Z,97878.70
2019-05-11T16:12:36.031Z,97888.06
2019-05-11T16:16:40.935Z,97893.70
2019-05-11T16:20:49.813Z,97905.95
2019-05-11T16:24:52.439Z,97922.34
2019-05-11T16:28:58.152Z,97926.92
2019-05-11T16:33:03.212Z,97926.41
2019-05-11T16:37:10.112Z,97924.38
2019-05-11T16:41:14.699Z,97934.00
2019-05-11T16:45:23.742Z,97931.52
2019-05-11T16:49:32.070Z,97938.95
2019-05-11T16:53:35.294Z,97937.75
2019-05-11T16:57:40.475Z,97947.70
2019-05-11T17:01:45.365Z,97962.09
2019-05-11T17:05:50.273Z,97977.98
2019-05-11T17:09:57.363Z,97993.02
2019-05-11T17:14:01.949Z,98009.13
2019-05-11T17:18:08.144Z,98014.44
2019-05-11T17:22:13.090Z,98026.49
2019-05-11T17:26:21.137Z,98034.37
2019-05-11T17:30:28.650Z,98042.34
2019-05-11T17:34:38.116Z,98062.38
2019-05-11T17:38:43.388Z,98085.84
2019-05-11T17:42:54.151Z,98094.45
2019-05-11T17:47:00.201Z,98101.78
2019-05-11T17:51:18.345Z,98106.61
2019-05-11T17:55:11.753Z,98110.66
2019-05-11T17:59:16.640Z,98120.14
2019-05-11T18:03:21.534Z,98119.12
2019-05-11T18:07:30.305Z,98127.13
2019-05-11T18:11:33.036Z,98137.34
2019-05-11T18:15:38.201Z,98152.30
2019-05-11T18:19:43.177Z,98153.16
2019-05-11T18:23:48.208Z,98149.23
2019-05-11T18:27:53.021Z,98158.88
2019-05-11T18:31:58.049Z,98172.73
2019-05-11T18:36:02.861Z,98181.93
2019-05-11T18:40:08.496Z,98189.13
2019-05-11T18:44:13.380Z,98195.83
2019-05-11T18:48:18.657Z,98201.73
2019-05-11T18:52:23.735Z,98218.66
2019-05-11T18:56:28.698Z,98227.58
2019-05-11T19:00:33.518Z,98225.68
2019-05-11T19:04:38.413Z,98249.49
2019-05-11T19:08:43.314Z,98258.91
2019-05-11T19:12:48.912Z,98279.61
2019-05-11T19:16:54.926Z,98285.88
2019-05-11T19:20:59.820Z,98290.06
2019-05-11T19:25:08.763Z,98303.86
2019-05-11T19:29:13.040Z,98318.83
2019-05-11T19:33:18.957Z,98326.91
2019-05-11T19:37:24.097Z,98340.67
2019-05-11T19:41:28.978Z,98346.54
2019-05-11T19:45:33.871Z,98354.58
2019-05-11T19:49:38.759Z,98366.91
2019-05-11T19:53:44.725Z,98360.19
2019-05-11T19:57:49.599Z,98374.27
2019-05-11T20:01:57.329Z,98376.27
2019-05-11T20:06:01.092Z,98389.58
2019-05-11T20:10:07.918Z,98395.48
2019-05-11T20:14:12.878Z,98390.50
2019-05-11T20:18:18.419Z,98391.52
2019-05-11T20:22:23.432Z,98399.11
2019-05-11T20:26:28.697Z,98400.05
2019-05-11T20:30:34.554Z,98409.33
2019-05-11T20:34:39.451Z,98410.77
2019-05-11T20:38:44.332Z,98414.27
2019-05-11T20:42:49.231Z,98413.55
2019-05-11T20:46:54.117Z,98425.72
2019-05-11T20:50:59.008Z,98428.97
2019-05-11T20:55:04.739Z,98426.08
2019-05-11T20:59:09.699Z,98438.44
2019-05-11T21:03:14.582Z,98439.92
2019-05-11T21:07:20.049Z,98438.56
2019-05-11T21:11:25.044Z,98434.95
2019-05-11T21:15:29.930Z,98428.72
2019-05-11T21:19:34.817Z,98442.34
2019-05-11T21:23:40.723Z,98448.16
2019-05-11T21:27:45.769Z,98451.33
2019-05-11T21:31:50.649Z,98458.38
2019-05-11T21:35:58.089Z,98462.02
2019-05-11T21:40:02.137Z,98454.31
2019-05-11T21:44:08.303Z,98459.59
2019-05-11T21:48:13.382Z,98469.73
2019-05-11T21:52:18.338Z,98484.63
2019-05-11T21:56:23.232Z,98492.95
2019-05-11T22:00:30.537Z,98499.48
2019-05-11T22:04:38.859Z,98505.55
2019-05-11T22:08:43.779Z,98501.66
2019-05-11T22:12:49.087Z,98512.98
2019-05-11T22:16:54.027Z,98522.55
2019-05-11T22:20:58.907Z,98519.95
2019-05-11T22:25:07.731Z,98526.84
2019-05-11T22:29:12.313Z,98542.54
2019-05-11T22:33:17.733Z,98541.30
2019-05-11T22:37:22.667Z,98538.73
2019-05-11T22:41:27.554Z,98545.29
2019-05-11T22:45:32.430Z,98554.86
2019-05-11T22:49:37.319Z,98567.87
2019-05-11T22:53:46.746Z,98575.70
2019-05-11T22:57:48.922Z,98582.93
2019-05-11T23:01:53.745Z,98584.30
2019-05-11T23:05:58.630Z,98593.06
2019-05-11T23:10:04.958Z,98600.88
2019-05-11T23:14:10.291Z,98607.45
2019-05-11T23:18:18.054Z,98610.05
2019-05-11T23:22:22.772Z,98621.32
2019-05-11T23:26:28.158Z,98624.39
2019-05-11T23:30:33.214Z,98633.14
2019-05-11T23:34:38.742Z,98628.15
2019-05-11T23:38:43.771Z,98636.16
2019-05-11T23:42:49.392Z,98633.14
2019-05-11T23:46:54.397Z,98634.86
2019-05-11T23:50:59.280Z,98650.97
2019-05-11T23:55:08.225Z,98660.08
2019-05-11T23:59:13.618Z,98654.45
